This is the latest recevied weather packets stored in our database for station/object KD8LPB. If no packets are shown the sender has not sent any weather packets the latest 10 day(s).
| Time | Temp. | Humidity | Pressure | Rain* | Wind** | Luminosity | Snow |
|---|---|---|---|---|---|---|---|
| 1777614359 | 1.67° C | 92% | 1014.4 hPa | 0 mm | - | - | - |
| 1777607142 | 1.67° C | 90% | 1014.6 hPa | 0 mm | - | - | - |
| 1777596339 | 1.67° C | 94% | 1014.3 hPa | 0 mm | - | - | - |
| 1777593636 | 1.67° C | 94% | 1014.3 hPa | 0 mm | - | - | - |
| 1777588236 | 4.44° C | 86% | 1014.4 hPa | 0 mm | - | - | - |
| 1777587340 | 4.44° C | 86% | 1014.4 hPa | 0 mm | - | - | - |
| 1777575640 | 3.89° C | 87% | 1014.2 hPa | 0 mm | - | - | - |
| 1777570239 | 2.78° C | 93% | 1014 hPa | 0 mm | - | - | - |
| 1777563936 | 1.67° C | 95% | 1014.1 hPa | 0 mm | - | - | - |
| 1777563047 | 2.22° C | 96% | 1014.1 hPa | 0 mm | - | - | - |
| 1777561243 | 2.22° C | 94% | 1014 hPa | 0 mm | - | - | - |
| 1777559440 | 2.78° C | 92% | 1014.1 hPa | 0 mm | - | - | - |
| 1777555841 | 2.78° C | 92% | 1013.9 hPa | 0 mm | - | - | - |
| 1777552240 | 2.22° C | 94% | 1014 hPa | 0 mm | - | - | - |
| 1777550437 | 1.67° C | 95% | 1013.9 hPa | 0 mm | - | - | - |
| 1777544139 | 1.11° C | 97% | 1013.6 hPa | 0 mm | - | - | - |
| 1777536944 | 1.11° C | 97% | 1013.8 hPa | 0 mm | - | - | - |
| 1777535138 | 1.11° C | 97% | 1013.8 hPa | 0 mm | - | - | - |
| 1777533344 | 1.11° C | 96% | 1013.9 hPa | 0 mm | - | - | - |
| 1777523437 | 0.56° C | 94% | 1014.6 hPa | 0 mm | - | - | - |
| 1777510850 | 1.67° C | 93% | 1014.3 hPa | 0 mm | - | - | - |
| 1777498237 | 2.22° C | 89% | 1014.1 hPa | 0 mm | - | - | - |
| 1777496447 | 3.33° C | 85% | 1014.1 hPa | 0 mm | - | - | - |
| 1777489239 | 3.89° C | 85% | 1014.2 hPa | 0 mm | - | - | - |
| 1777487441 | 3.33° C | 87% | 1014.1 hPa | 0 mm | - | - | - |
* Rain latest hour (hover to see other rain measurements)
** Current wind speed in m/s (hover to see current wind gust speed)